KONA/ONA METAR and TAF weather

Enter ICAO airport designator
Station Type Date Time Source
KONA METAR 2022/05/20 01:55 UTC NOAA

KONA 200155Z AUTO 21014G22KT 191V261 1 1/2SM +VCTSRA SCT005 BKN010 OVC021 17/16 A2925 RMK AO2 LTG DSNT ALQS P0107


Station Type Date Time Source
KONA Decoded METAR 2022/05/20 01:55 UTC NOAA

Winona, Winona Municipal Airport-Max Conrad Field, MN, United States (KONA) 44-05N 091-42W
May 19, 2022 - 09:55 PM EDT / 2022.05.20 0155 UTC
Wind: from the SSW (210 degrees) at 16 MPH (14 KT) gusting to 25 MPH (22 KT) (direction variable):0
Visibility: 1 1/2 mile(s):0
Sky conditions: overcast
Weather: heavy rain with thunder in the vicinity; Lightning observed
Precipitation last hour: 1.07 inches
Temperature: 62 F (17 C)
Dew Point: 60 F (16 C)
Relative Humidity: 93%
Pressure (altimeter): 29.25 in. Hg (990 hPa)
ob: KONA 200155Z AUTO 21014G22KT 191V261 1 1/2SM +VCTSRA SCT005 BKN010 OVC021 17/16 A2925 RMK AO2 LTG DSNT ALQS P0107
cycle: 2

Station Type Date Time Source
KONA TAF UTC NOAA

Error!

Example: see airport list